createdAt,value
2023-04-16T00:00:50.192Z,100.00
2023-04-16T00:03:17.046Z,100.00
2023-04-16T00:05:43.874Z,100.00
2023-04-16T00:08:10.548Z,100.00
2023-04-16T00:10:37.179Z,100.00
2023-04-16T00:13:04.868Z,100.00
2023-04-16T00:15:31.516Z,100.00
2023-04-16T00:17:58.168Z,100.00
2023-04-16T00:20:24.838Z,100.00
2023-04-16T00:22:51.349Z,100.00
2023-04-16T00:25:17.935Z,100.00
2023-04-16T00:27:44.539Z,100.00
2023-04-16T00:30:11.917Z,100.00
2023-04-16T00:32:38.501Z,100.00
2023-04-16T00:35:05.777Z,100.00
2023-04-16T00:37:32.322Z,100.00
2023-04-16T00:39:58.936Z,100.00
2023-04-16T00:42:25.592Z,100.00
2023-04-16T00:44:52.023Z,100.00
2023-04-16T00:47:19.837Z,100.00
2023-04-16T00:49:46.888Z,100.00
2023-04-16T00:52:13.528Z,100.00
2023-04-16T00:54:40.360Z,100.00
2023-04-16T00:57:06.814Z,100.00
2023-04-16T00:59:33.593Z,100.00
2023-04-16T01:02:00.542Z,100.00
2023-04-16T01:04:27.508Z,100.00
2023-04-16T01:06:54.995Z,100.00
2023-04-16T01:09:21.741Z,100.00
2023-04-16T01:11:48.307Z,100.00
2023-04-16T01:14:15.373Z,100.00
2023-04-16T01:16:42.101Z,100.00
2023-04-16T01:19:09.085Z,100.00
2023-04-16T01:21:36.114Z,100.00
2023-04-16T01:24:04.610Z,100.00
2023-04-16T01:26:31.703Z,100.00
2023-04-16T01:28:59.937Z,100.00
2023-04-16T01:31:26.906Z,100.00
2023-04-16T01:33:53.703Z,100.00
2023-04-16T01:36:20.683Z,100.00
2023-04-16T01:38:47.908Z,100.00
2023-04-16T01:41:14.909Z,100.00
2023-04-16T01:43:42.523Z,100.00
2023-04-16T01:46:16.056Z,100.00
2023-04-16T01:48:44.838Z,100.00
2023-04-16T01:51:14.306Z,100.00
2023-04-16T01:53:43.711Z,100.00
2023-04-16T01:56:13.829Z,100.00
2023-04-16T01:58:42.761Z,100.00
2023-04-16T02:01:09.800Z,100.00
2023-04-16T02:03:36.777Z,100.00
2023-04-16T02:06:04.288Z,100.00
2023-04-16T02:08:31.040Z,100.00
2023-04-16T02:10:58.353Z,100.00
2023-04-16T02:13:26.129Z,100.00
2023-04-16T02:15:53.013Z,100.00
2023-04-16T02:18:19.928Z,100.00
2023-04-16T02:20:47.983Z,100.00
2023-04-16T02:23:15.091Z,100.00
2023-04-16T02:25:43.203Z,100.00
2023-04-16T02:28:14.123Z,100.00
2023-04-16T02:30:40.912Z,100.00
2023-04-16T02:33:08.703Z,100.00
2023-04-16T02:35:35.630Z,100.00
2023-04-16T02:38:03.001Z,100.00
2023-04-16T02:40:30.027Z,100.00
2023-04-16T02:42:56.884Z,100.00
2023-04-16T02:45:24.191Z,100.00
2023-04-16T02:47:51.397Z,100.00
2023-04-16T02:50:18.458Z,100.00
2023-04-16T02:52:45.141Z,100.00
2023-04-16T02:55:11.911Z,100.00
2023-04-16T02:57:38.510Z,100.00
2023-04-16T03:00:05.581Z,100.00
2023-04-16T03:02:32.383Z,100.00
2023-04-16T03:04:58.976Z,100.00
2023-04-16T03:07:26.108Z,100.00
2023-04-16T03:09:52.782Z,100.00
2023-04-16T03:12:19.555Z,100.00
2023-04-16T03:14:46.392Z,100.00
2023-04-16T03:17:13.043Z,100.00
2023-04-16T03:19:39.664Z,100.00
2023-04-16T03:22:06.390Z,100.00
2023-04-16T03:24:33.069Z,100.00
2023-04-16T03:26:59.704Z,100.00
2023-04-16T03:29:27.292Z,100.00
2023-04-16T03:31:53.707Z,100.00
2023-04-16T03:34:20.450Z,100.00
2023-04-16T03:36:46.942Z,100.00
2023-04-16T03:39:13.650Z,100.00
2023-04-16T03:41:40.237Z,100.00
2023-04-16T03:44:06.901Z,100.00
2023-04-16T03:46:33.607Z,100.00
2023-04-16T03:49:00.437Z,100.00
2023-04-16T03:51:27.113Z,100.00
2023-04-16T03:53:53.834Z,100.00
2023-04-16T03:56:20.784Z,100.00
2023-04-16T03:58:47.452Z,100.00
2023-04-16T04:01:14.051Z,100.00
2023-04-16T04:03:41.110Z,100.00
2023-04-16T04:06:08.586Z,100.00
2023-04-16T04:08:35.254Z,100.00
2023-04-16T04:11:02.018Z,100.00
2023-04-16T04:13:28.734Z,100.00
2023-04-16T04:15:55.689Z,100.00
2023-04-16T04:18:22.464Z,100.00
2023-04-16T04:20:48.934Z,100.00
2023-04-16T04:23:15.767Z,100.00
2023-04-16T04:25:42.593Z,100.00
2023-04-16T04:28:09.089Z,100.00
2023-04-16T04:30:36.042Z,100.00
2023-04-16T04:33:02.574Z,100.00
2023-04-16T04:35:29.192Z,100.00
2023-04-16T04:37:55.792Z,100.00
2023-04-16T04:40:22.423Z,100.00
2023-04-16T04:42:49.051Z,100.00
2023-04-16T04:45:16.072Z,100.00
2023-04-16T04:47:42.755Z,100.00
2023-04-16T04:50:09.679Z,100.00
2023-04-16T04:52:36.307Z,100.00
2023-04-16T04:55:02.820Z,100.00
2023-04-16T04:57:29.522Z,100.00
2023-04-16T04:59:56.384Z,100.00
2023-04-16T05:02:23.075Z,100.00
2023-04-16T05:04:49.663Z,100.00
2023-04-16T05:07:16.491Z,100.00
2023-04-16T05:09:42.979Z,100.00
2023-04-16T05:12:09.473Z,100.00
2023-04-16T05:14:36.717Z,100.00
2023-04-16T05:17:03.441Z,100.00
2023-04-16T05:19:30.087Z,100.00
2023-04-16T05:21:56.556Z,100.00
2023-04-16T05:24:23.328Z,100.00
2023-04-16T05:26:49.979Z,100.00
2023-04-16T05:29:16.847Z,100.00
2023-04-16T05:31:44.224Z,100.00
2023-04-16T05:34:10.846Z,100.00
2023-04-16T05:36:37.345Z,100.00
2023-04-16T05:39:04.071Z,100.00
2023-04-16T05:41:30.991Z,100.00
2023-04-16T05:43:57.578Z,100.00
2023-04-16T05:46:24.087Z,100.00
2023-04-16T05:48:51.379Z,99.22
2023-04-16T05:51:18.190Z,98.27
2023-04-16T05:53:44.702Z,98.95
2023-04-16T05:56:11.420Z,98.01
2023-04-16T05:58:38.046Z,95.98
2023-04-16T06:01:05.191Z,95.87
2023-04-16T06:03:31.877Z,92.98
2023-04-16T06:05:58.968Z,92.44
2023-04-16T06:08:25.633Z,93.94
2023-04-16T06:10:53.219Z,91.88
2023-04-16T06:13:19.687Z,89.40
2023-04-16T06:15:46.842Z,88.00
2023-04-16T06:18:13.530Z,89.08
2023-04-16T06:20:40.543Z,88.36
2023-04-16T06:23:07.046Z,83.35
2023-04-16T06:25:33.693Z,82.62
2023-04-16T06:28:00.302Z,81.32
2023-04-16T06:30:27.022Z,82.12
2023-04-16T06:32:53.727Z,79.72
2023-04-16T06:35:20.380Z,78.29
2023-04-16T06:37:47.323Z,77.82
2023-04-16T06:40:14.266Z,78.99
2023-04-16T06:42:41.851Z,77.62
2023-04-16T06:45:09.890Z,77.38
2023-04-16T06:47:36.510Z,79.12
2023-04-16T06:50:03.459Z,79.84
2023-04-16T06:52:30.347Z,79.54
2023-04-16T06:54:57.055Z,79.82
2023-04-16T06:57:23.824Z,79.65
2023-04-16T06:59:50.461Z,80.03
2023-04-16T07:02:17.329Z,80.31
2023-04-16T07:04:43.972Z,78.69
2023-04-16T07:07:10.476Z,76.64
2023-04-16T07:09:37.005Z,77.21
2023-04-16T07:12:03.815Z,75.76
2023-04-16T07:14:30.504Z,76.00
2023-04-16T07:16:57.265Z,76.68
2023-04-16T07:19:24.125Z,75.15
2023-04-16T07:21:51.318Z,75.39
2023-04-16T07:24:18.113Z,73.80
2023-04-16T07:26:44.625Z,74.72
2023-04-16T07:29:11.528Z,73.29
2023-04-16T07:31:38.544Z,72.24
2023-04-16T07:34:05.423Z,71.03
2023-04-16T07:36:32.249Z,69.57
2023-04-16T07:38:58.766Z,68.53
2023-04-16T07:41:25.488Z,70.02
2023-04-16T07:43:52.042Z,68.95
2023-04-16T07:46:18.586Z,69.28
2023-04-16T07:48:45.336Z,68.60
2023-04-16T07:51:12.290Z,68.52
2023-04-16T07:53:38.746Z,66.64
2023-04-16T07:56:05.574Z,64.45
2023-04-16T07:58:32.381Z,62.83
2023-04-16T08:00:59.073Z,63.53
2023-04-16T08:03:25.842Z,63.38
2023-04-16T08:05:52.816Z,64.54
2023-04-16T08:08:19.350Z,65.23
2023-04-16T08:10:46.302Z,63.45
2023-04-16T08:13:12.938Z,59.98
2023-04-16T08:15:40.777Z,62.84
2023-04-16T08:18:12.762Z,61.80
2023-04-16T08:20:39.505Z,61.28
2023-04-16T08:23:06.163Z,59.56
2023-04-16T08:25:32.726Z,60.35
2023-04-16T08:27:59.768Z,62.73
2023-04-16T08:30:26.442Z,60.69
2023-04-16T08:32:52.988Z,59.39
2023-04-16T08:35:19.652Z,58.33
2023-04-16T08:37:46.489Z,57.26
2023-04-16T08:40:13.332Z,56.27
2023-04-16T08:42:45.290Z,55.62
2023-04-16T08:45:17.327Z,56.49
2023-04-16T08:47:51.804Z,55.72
2023-04-16T08:50:28.323Z,55.73
2023-04-16T08:53:09.122Z,55.66
2023-04-16T08:55:38.528Z,56.78
2023-04-16T08:58:18.749Z,55.15
2023-04-16T09:00:46.489Z,55.90
2023-04-16T09:03:13.089Z,55.73
2023-04-16T09:05:40.202Z,55.81
2023-04-16T09:08:06.929Z,55.39
2023-04-16T09:10:34.637Z,58.28
2023-04-16T09:13:01.463Z,59.79
2023-04-16T09:15:29.438Z,58.62
2023-04-16T09:17:58.965Z,59.13
2023-04-16T09:20:26.079Z,55.70
2023-04-16T09:22:52.708Z,58.33
2023-04-16T09:25:20.986Z,57.63
2023-04-16T09:27:50.331Z,56.29
2023-04-16T09:30:24.711Z,53.71
2023-04-16T09:32:52.777Z,55.19
2023-04-16T09:35:19.962Z,54.30
2023-04-16T09:38:06.755Z,53.97
2023-04-16T09:40:33.497Z,53.72
2023-04-16T09:43:00.894Z,57.03
2023-04-16T09:45:31.699Z,54.52
2023-04-16T09:48:04.654Z,56.36
2023-04-16T09:50:31.410Z,55.88
2023-04-16T09:53:02.443Z,55.18
2023-04-16T09:55:29.172Z,53.70
2023-04-16T09:58:00.874Z,53.87
2023-04-16T10:00:29.198Z,53.45
2023-04-16T10:03:06.699Z,52.51
2023-04-16T10:05:33.853Z,52.26
2023-04-16T10:08:01.893Z,52.11
2023-04-16T10:10:29.133Z,52.84
2023-04-16T10:12:55.765Z,52.44
2023-04-16T10:15:22.830Z,53.82
2023-04-16T10:17:50.372Z,51.85
2023-04-16T10:20:18.378Z,52.25
2023-04-16T10:22:45.235Z,52.31
2023-04-16T10:25:12.896Z,54.18
2023-04-16T10:27:40.376Z,52.91
2023-04-16T10:30:08.619Z,52.94
2023-04-16T10:32:36.327Z,52.91
2023-04-16T10:35:02.962Z,54.65
2023-04-16T10:37:31.288Z,53.71
2023-04-16T10:40:00.945Z,53.96
2023-04-16T10:42:28.054Z,53.44
2023-04-16T10:44:54.616Z,55.18
2023-04-16T10:47:24.541Z,53.76
2023-04-16T10:49:51.880Z,53.02
2023-04-16T10:52:18.586Z,54.24
2023-04-16T10:54:46.736Z,52.79
2023-04-16T10:57:18.272Z,53.10
2023-04-16T10:59:45.310Z,52.98
2023-04-16T11:02:17.932Z,54.31
2023-04-16T11:04:50.021Z,52.06
2023-04-16T11:07:19.170Z,47.89
2023-04-16T11:10:04.128Z,48.17
2023-04-16T11:12:40.376Z,47.91
2023-04-16T11:15:09.301Z,53.10
2023-04-16T11:17:52.831Z,48.69
2023-04-16T11:20:23.969Z,50.15
2023-04-16T11:22:52.172Z,45.23
2023-04-16T11:25:22.894Z,46.25
2023-04-16T11:27:50.082Z,44.99
2023-04-16T11:30:18.660Z,44.22
2023-04-16T11:32:46.020Z,46.55
2023-04-16T11:35:17.704Z,46.05
2023-04-16T11:37:45.422Z,49.98
2023-04-16T11:40:12.710Z,49.39
2023-04-16T11:42:40.846Z,47.86
2023-04-16T11:45:09.606Z,48.34
2023-04-16T11:47:46.954Z,45.34
2023-04-16T11:50:31.390Z,43.61
2023-04-16T11:53:03.755Z,44.07
2023-04-16T11:55:31.147Z,45.68
2023-04-16T11:57:57.765Z,46.06
2023-04-16T12:00:25.030Z,47.36
2023-04-16T12:02:53.548Z,48.73
2023-04-16T12:05:31.340Z,47.33
2023-04-16T12:07:58.996Z,47.43
2023-04-16T12:10:27.084Z,47.07
2023-04-16T12:12:54.841Z,46.35
2023-04-16T12:15:21.585Z,46.52
2023-04-16T12:17:48.750Z,47.76
2023-04-16T12:20:15.771Z,48.23
2023-04-16T12:22:47.377Z,48.96
2023-04-16T12:25:15.980Z,48.60
2023-04-16T12:27:47.030Z,47.23
2023-04-16T12:30:21.133Z,47.19
2023-04-16T12:32:50.569Z,47.84
2023-04-16T12:35:31.548Z,47.70
2023-04-16T12:37:58.414Z,46.97
2023-04-16T12:40:24.987Z,48.31
2023-04-16T12:42:51.515Z,47.19
2023-04-16T12:45:18.499Z,47.29
2023-04-16T12:47:45.054Z,46.40
2023-04-16T12:50:11.868Z,47.18
2023-04-16T12:52:38.496Z,47.42
2023-04-16T12:55:05.651Z,46.24
2023-04-16T12:57:32.296Z,46.93
2023-04-16T12:59:59.211Z,46.32
2023-04-16T13:02:26.265Z,45.77
2023-04-16T13:04:54.118Z,46.40
2023-04-16T13:07:21.223Z,48.05
2023-04-16T13:09:48.664Z,49.28
2023-04-16T13:12:15.646Z,46.06
2023-04-16T13:14:44.619Z,46.53
2023-04-16T13:17:11.752Z,48.00
2023-04-16T13:19:38.306Z,47.85
2023-04-16T13:22:05.042Z,47.91
2023-04-16T13:24:32.016Z,49.45
2023-04-16T13:26:58.596Z,50.99
2023-04-16T13:29:25.049Z,51.62
2023-04-16T13:31:52.051Z,51.17
2023-04-16T13:34:18.593Z,52.99
2023-04-16T13:36:45.270Z,52.75
2023-04-16T13:39:11.988Z,52.95
2023-04-16T13:41:38.830Z,55.25
2023-04-16T13:44:06.389Z,57.82
2023-04-16T13:46:33.382Z,57.77
2023-04-16T13:48:59.989Z,57.37
2023-04-16T13:51:27.734Z,57.09
2023-04-16T13:53:55.896Z,58.51
2023-04-16T13:56:22.704Z,58.87
2023-04-16T13:58:49.505Z,59.81
2023-04-16T14:01:17.354Z,60.11
2023-04-16T14:03:44.253Z,59.11
2023-04-16T14:06:10.962Z,59.39
2023-04-16T14:08:38.292Z,59.76
2023-04-16T14:11:06.432Z,60.40
2023-04-16T14:13:33.099Z,58.88
2023-04-16T14:15:59.909Z,62.82
2023-04-16T14:18:26.481Z,67.43
2023-04-16T14:20:53.317Z,67.38
2023-04-16T14:23:20.104Z,67.51
2023-04-16T14:25:46.755Z,67.25
2023-04-16T14:28:15.458Z,66.76
2023-04-16T14:30:42.330Z,66.71
2023-04-16T14:33:08.894Z,67.22
2023-04-16T14:35:36.066Z,69.59
2023-04-16T14:38:02.821Z,71.69
2023-04-16T14:40:29.553Z,71.34
2023-04-16T14:42:56.246Z,71.23
2023-04-16T14:45:22.868Z,70.85
2023-04-16T14:47:50.752Z,70.55
2023-04-16T14:50:17.394Z,71.55
2023-04-16T14:52:43.801Z,70.04
2023-04-16T14:55:10.729Z,71.27
2023-04-16T14:57:38.450Z,71.23
2023-04-16T15:00:10.381Z,70.93
2023-04-16T15:02:37.521Z,70.39
2023-04-16T15:05:04.467Z,71.25
2023-04-16T15:07:31.565Z,70.71
2023-04-16T15:09:58.917Z,70.17
2023-04-16T15:12:26.463Z,66.52
2023-04-16T15:14:53.014Z,66.23
2023-04-16T15:17:20.417Z,65.57
2023-04-16T15:19:47.596Z,66.86
2023-04-16T15:22:14.781Z,67.64
2023-04-16T15:24:41.309Z,68.56
2023-04-16T15:27:11.583Z,68.99
2023-04-16T15:29:38.872Z,70.66
2023-04-16T15:32:06.929Z,71.99
2023-04-16T15:34:33.537Z,73.12
2023-04-16T15:37:00.415Z,73.32
2023-04-16T15:39:27.082Z,74.73
2023-04-16T15:42:01.596Z,75.80
2023-04-16T15:44:31.024Z,74.88
2023-04-16T15:46:57.528Z,76.79
2023-04-16T15:49:24.780Z,75.88
2023-04-16T15:51:52.270Z,78.37
2023-04-16T15:54:19.150Z,77.70
2023-04-16T15:56:46.595Z,76.23
2023-04-16T15:59:13.634Z,75.52
2023-04-16T16:01:40.523Z,74.46
2023-04-16T16:04:07.981Z,74.46
2023-04-16T16:06:35.029Z,73.53
2023-04-16T16:09:01.842Z,74.41
2023-04-16T16:11:28.676Z,73.91
2023-04-16T16:13:55.440Z,75.01
2023-04-16T16:16:22.051Z,75.77
2023-04-16T16:18:48.792Z,75.55
2023-04-16T16:21:15.692Z,75.01
2023-04-16T16:23:42.331Z,75.78
2023-04-16T16:26:09.255Z,75.29
2023-04-16T16:28:37.682Z,77.00
2023-04-16T16:31:06.090Z,77.12
2023-04-16T16:33:33.140Z,77.75
2023-04-16T16:35:59.736Z,77.80
2023-04-16T16:38:26.265Z,77.36
2023-04-16T16:40:52.774Z,78.30
2023-04-16T16:43:20.255Z,78.37
2023-04-16T16:45:47.189Z,78.05
2023-04-16T16:48:13.759Z,77.41
2023-04-16T16:50:40.356Z,77.53
2023-04-16T16:53:06.908Z,78.87
2023-04-16T16:55:35.148Z,78.43
2023-04-16T16:58:01.803Z,78.67
2023-04-16T17:00:28.525Z,78.75
2023-04-16T17:02:55.198Z,78.36
2023-04-16T17:05:21.992Z,80.08
2023-04-16T17:07:48.547Z,81.20
2023-04-16T17:10:20.212Z,81.56
2023-04-16T17:12:51.060Z,82.00
2023-04-16T17:15:20.690Z,80.95
2023-04-16T17:17:48.504Z,81.68
2023-04-16T17:20:15.725Z,82.02
2023-04-16T17:22:42.664Z,83.10
2023-04-16T17:25:09.552Z,83.14
2023-04-16T17:27:36.236Z,84.40
2023-04-16T17:30:04.990Z,83.75
2023-04-16T17:32:32.585Z,85.49
2023-04-16T17:35:00.988Z,86.58
2023-04-16T17:37:27.782Z,87.42
2023-04-16T17:39:54.551Z,87.61
2023-04-16T17:42:21.676Z,87.69
2023-04-16T17:44:48.329Z,88.68
2023-04-16T17:47:15.070Z,87.95
2023-04-16T17:49:41.676Z,88.93
2023-04-16T17:52:08.307Z,89.62
2023-04-16T17:54:35.335Z,89.99
2023-04-16T17:57:02.235Z,91.22
2023-04-16T17:59:28.918Z,90.79
2023-04-16T18:01:56.776Z,91.44
2023-04-16T18:04:23.663Z,91.19
2023-04-16T18:06:50.791Z,91.61
2023-04-16T18:09:19.074Z,92.56
2023-04-16T18:11:45.669Z,92.55
2023-04-16T18:14:16.740Z,92.60
2023-04-16T18:16:43.845Z,93.20
2023-04-16T18:19:11.370Z,92.72
2023-04-16T18:21:37.946Z,94.06
2023-04-16T18:24:05.419Z,93.88
2023-04-16T18:26:35.639Z,93.26
2023-04-16T18:29:03.092Z,93.79
2023-04-16T18:31:30.384Z,93.73
2023-04-16T18:33:58.251Z,94.73
2023-04-16T18:36:26.810Z,93.62
2023-04-16T18:39:01.772Z,95.26
2023-04-16T18:41:30.792Z,93.74
2023-04-16T18:43:57.513Z,94.76
2023-04-16T18:46:24.331Z,94.84
2023-04-16T18:48:50.935Z,94.34
2023-04-16T18:51:17.712Z,94.75
2023-04-16T18:53:45.763Z,95.17
2023-04-16T18:56:12.587Z,94.31
2023-04-16T18:58:39.075Z,95.27
2023-04-16T19:01:10.838Z,95.08
2023-04-16T19:03:38.560Z,95.19
2023-04-16T19:06:05.939Z,95.62
2023-04-16T19:08:32.532Z,96.07
2023-04-16T19:10:59.135Z,95.71
2023-04-16T19:13:25.593Z,97.01
2023-04-16T19:15:57.628Z,98.03
2023-04-16T19:18:24.255Z,98.54
2023-04-16T19:20:50.830Z,99.52
2023-04-16T19:23:17.437Z,99.50
2023-04-16T19:25:44.003Z,100.00
2023-04-16T19:28:10.577Z,100.00
2023-04-16T19:30:37.110Z,100.00
2023-04-16T19:33:03.680Z,100.00
2023-04-16T19:35:30.650Z,100.00
2023-04-16T19:37:58.030Z,100.00
2023-04-16T19:40:24.577Z,100.00
2023-04-16T19:42:51.040Z,100.00
2023-04-16T19:45:18.393Z,100.00
2023-04-16T19:47:45.495Z,100.00
2023-04-16T19:50:12.308Z,100.00
2023-04-16T19:52:39.092Z,100.00
2023-04-16T19:55:07.016Z,100.00
2023-04-16T19:57:33.622Z,100.00
2023-04-16T20:00:00.433Z,100.00
2023-04-16T20:02:27.169Z,100.00
2023-04-16T20:04:53.817Z,100.00
2023-04-16T20:07:20.604Z,100.00
2023-04-16T20:09:47.088Z,100.00
2023-04-16T20:12:14.273Z,100.00
2023-04-16T20:14:41.900Z,100.00
2023-04-16T20:17:09.976Z,100.00
2023-04-16T20:19:40.120Z,100.00
2023-04-16T20:22:07.054Z,100.00
2023-04-16T20:24:34.320Z,100.00
2023-04-16T20:27:01.766Z,100.00
2023-04-16T20:29:28.344Z,100.00
2023-04-16T20:31:54.818Z,100.00
2023-04-16T20:34:21.554Z,100.00
2023-04-16T20:36:48.397Z,100.00
2023-04-16T20:39:20.157Z,100.00
2023-04-16T20:41:56.549Z,100.00
2023-04-16T20:44:26.398Z,100.00
2023-04-16T20:46:54.863Z,100.00
2023-04-16T20:49:21.578Z,100.00
2023-04-16T20:51:48.034Z,100.00
2023-04-16T20:54:14.468Z,100.00
2023-04-16T20:56:40.895Z,100.00
2023-04-16T20:59:07.283Z,100.00
2023-04-16T21:01:33.791Z,100.00
2023-04-16T21:04:01.561Z,100.00
2023-04-16T21:06:28.198Z,100.00
2023-04-16T21:08:54.636Z,100.00
2023-04-16T21:11:21.058Z,100.00
2023-04-16T21:13:47.489Z,100.00
2023-04-16T21:16:13.997Z,100.00
2023-04-16T21:18:40.695Z,100.00
2023-04-16T21:21:07.240Z,100.00
2023-04-16T21:23:33.603Z,100.00
2023-04-16T21:26:00.095Z,100.00
2023-04-16T21:28:26.598Z,100.00
2023-04-16T21:30:53.693Z,100.00
2023-04-16T21:33:20.578Z,100.00
2023-04-16T21:35:56.028Z,100.00
2023-04-16T21:38:22.737Z,100.00
2023-04-16T21:40:51.246Z,100.00
2023-04-16T21:43:17.931Z,100.00
2023-04-16T21:45:44.429Z,100.00
2023-04-16T21:48:11.033Z,100.00
2023-04-16T21:50:37.808Z,100.00
2023-04-16T21:53:06.290Z,100.00
2023-04-16T21:55:34.636Z,100.00
2023-04-16T21:58:01.689Z,100.00
2023-04-16T22:00:28.309Z,100.00
2023-04-16T22:02:56.145Z,100.00
2023-04-16T22:05:26.024Z,100.00
2023-04-16T22:07:53.922Z,100.00
2023-04-16T22:10:20.632Z,100.00
2023-04-16T22:12:47.138Z,100.00
2023-04-16T22:15:14.106Z,100.00
2023-04-16T22:17:41.071Z,100.00
2023-04-16T22:20:14.084Z,100.00
2023-04-16T22:22:41.840Z,100.00
2023-04-16T22:25:09.367Z,100.00
2023-04-16T22:27:36.262Z,100.00
2023-04-16T22:30:03.906Z,100.00
2023-04-16T22:32:30.940Z,100.00
2023-04-16T22:34:57.608Z,100.00
2023-04-16T22:37:24.180Z,100.00
2023-04-16T22:39:50.784Z,100.00
2023-04-16T22:42:17.268Z,100.00
2023-04-16T22:44:43.623Z,100.00
2023-04-16T22:47:10.113Z,100.00
2023-04-16T22:49:36.489Z,100.00
2023-04-16T22:52:03.208Z,100.00
2023-04-16T22:54:30.463Z,100.00
2023-04-16T22:56:57.573Z,100.00
2023-04-16T22:59:24.519Z,100.00
2023-04-16T23:01:51.360Z,100.00
2023-04-16T23:04:18.166Z,100.00
2023-04-16T23:06:44.619Z,100.00
2023-04-16T23:09:11.220Z,100.00
2023-04-16T23:11:37.785Z,100.00
2023-04-16T23:14:05.068Z,100.00
2023-04-16T23:16:32.087Z,100.00
2023-04-16T23:18:58.824Z,100.00
2023-04-16T23:21:29.729Z,100.00
2023-04-16T23:23:57.212Z,100.00
2023-04-16T23:26:23.916Z,100.00
2023-04-16T23:28:50.806Z,100.00
2023-04-16T23:31:18.753Z,100.00
2023-04-16T23:33:45.569Z,100.00
2023-04-16T23:36:12.202Z,100.00
2023-04-16T23:38:38.885Z,100.00
2023-04-16T23:41:05.901Z,100.00
2023-04-16T23:43:32.538Z,100.00
2023-04-16T23:45:59.250Z,100.00
2023-04-16T23:48:25.938Z,100.00
2023-04-16T23:50:52.421Z,100.00
2023-04-16T23:53:18.893Z,100.00
2023-04-16T23:55:45.607Z,100.00
2023-04-16T23:58:12.256Z,100.00
